createdAt,value
2017-12-09T00:00:24.815Z,1.20
2017-12-09T00:02:53.022Z,1.20
2017-12-09T00:05:20.457Z,1.10
2017-12-09T00:07:47.887Z,1.10
2017-12-09T00:10:15.390Z,1.10
2017-12-09T00:12:42.811Z,1.00
2017-12-09T00:15:11.016Z,1.00
2017-12-09T00:17:38.454Z,1.00
2017-12-09T00:20:05.955Z,1.00
2017-12-09T00:22:41.403Z,1.00
2017-12-09T00:25:08.842Z,0.90
2017-12-09T00:27:36.278Z,1.00
2017-12-09T00:30:03.714Z,1.10
2017-12-09T00:32:31.920Z,1.10
2017-12-09T00:35:00.023Z,1.10
2017-12-09T00:37:27.474Z,1.10
2017-12-09T00:39:54.928Z,1.10
2017-12-09T00:42:22.363Z,1.10
2017-12-09T00:44:49.799Z,1.00
2017-12-09T00:47:17.238Z,1.00
2017-12-09T00:49:45.435Z,1.00
2017-12-09T00:52:12.876Z,1.00
2017-12-09T00:54:41.080Z,1.00
2017-12-09T00:57:09.171Z,1.00
2017-12-09T00:59:36.604Z,1.00
2017-12-09T01:02:04.038Z,1.00
2017-12-09T01:04:32.052Z,1.00
2017-12-09T01:06:59.495Z,1.00
2017-12-09T01:09:26.926Z,1.00
2017-12-09T01:11:54.372Z,1.00
2017-12-09T01:14:22.570Z,1.00
2017-12-09T01:17:01.979Z,1.00
2017-12-09T01:19:30.179Z,0.90
2017-12-09T01:21:57.666Z,0.90
2017-12-09T01:24:25.119Z,1.00
2017-12-09T01:26:52.568Z,1.00
2017-12-09T01:29:20.003Z,1.00
2017-12-09T01:31:47.443Z,1.10
2017-12-09T01:34:14.874Z,1.00
2017-12-09T01:36:43.079Z,0.90
2017-12-09T01:39:10.511Z,0.90
2017-12-09T01:41:38.742Z,0.90
2017-12-09T01:44:06.182Z,0.90
2017-12-09T01:46:33.634Z,0.80
2017-12-09T01:49:01.068Z,0.80
2017-12-09T01:51:29.290Z,0.70
2017-12-09T01:53:56.747Z,0.70
2017-12-09T01:56:24.698Z,0.70
2017-12-09T01:58:52.135Z,0.70
2017-12-09T02:01:19.639Z,0.80
2017-12-09T02:03:47.499Z,0.90
2017-12-09T02:06:14.935Z,0.90
2017-12-09T02:08:42.369Z,1.00
2017-12-09T02:11:09.803Z,1.10
2017-12-09T02:13:38.016Z,1.10
2017-12-09T02:16:05.443Z,1.10
2017-12-09T02:18:33.648Z,1.00
2017-12-09T02:21:01.079Z,1.00
2017-12-09T02:23:28.583Z,1.00
2017-12-09T02:25:56.018Z,1.00
2017-12-09T02:28:23.459Z,1.00
2017-12-09T02:30:50.896Z,1.00
2017-12-09T02:33:19.104Z,1.00
2017-12-09T02:35:46.581Z,1.00
2017-12-09T02:38:15.371Z,1.00
2017-12-09T02:40:42.795Z,1.00
2017-12-09T02:43:10.280Z,0.90
2017-12-09T02:45:37.711Z,0.90
2017-12-09T02:48:05.399Z,0.80
2017-12-09T02:50:32.834Z,0.80
2017-12-09T02:53:00.290Z,0.80
2017-12-09T02:55:27.766Z,0.80
2017-12-09T02:57:55.207Z,0.70
2017-12-09T03:00:22.646Z,0.80
2017-12-09T03:02:50.079Z,0.80
2017-12-09T03:05:18.307Z,0.90
2017-12-09T03:07:45.740Z,0.90
2017-12-09T03:10:13.183Z,0.90
2017-12-09T03:12:40.616Z,0.90
2017-12-09T03:15:08.059Z,0.80
2017-12-09T03:17:35.491Z,0.80
2017-12-09T03:20:02.936Z,0.80
2017-12-09T03:22:30.370Z,0.80
2017-12-09T03:24:57.813Z,0.90
2017-12-09T03:27:26.011Z,1.00
2017-12-09T03:29:53.483Z,1.00
2017-12-09T03:32:20.950Z,1.00
2017-12-09T03:34:48.391Z,1.00
2017-12-09T03:37:15.836Z,1.00
2017-12-09T03:39:43.275Z,1.00
2017-12-09T03:42:10.916Z,1.00
2017-12-09T03:44:39.127Z,0.90
2017-12-09T03:47:06.563Z,0.90
2017-12-09T03:49:34.062Z,0.80
2017-12-09T03:52:02.247Z,0.80
2017-12-09T03:54:29.692Z,0.80
2017-12-09T03:56:57.131Z,0.70
2017-12-09T03:59:28.337Z,0.70
2017-12-09T04:01:56.537Z,0.70
2017-12-09T04:04:24.675Z,0.70
2017-12-09T04:06:52.895Z,0.70
2017-12-09T04:09:20.314Z,0.70
2017-12-09T04:11:48.548Z,0.70
2017-12-09T04:14:15.986Z,0.70
2017-12-09T04:16:43.422Z,0.70
2017-12-09T04:19:10.873Z,0.80
2017-12-09T04:21:39.087Z,0.80
2017-12-09T04:24:06.527Z,0.70
2017-12-09T04:26:33.969Z,0.70
2017-12-09T04:29:01.403Z,0.70
2017-12-09T04:31:29.602Z,0.70
2017-12-09T04:33:57.039Z,0.70
2017-12-09T04:36:25.247Z,0.70
2017-12-09T04:38:52.684Z,0.70
2017-12-09T04:41:20.914Z,0.70
2017-12-09T04:43:48.451Z,0.70
2017-12-09T04:46:15.891Z,0.70
2017-12-09T04:48:43.319Z,0.70
2017-12-09T04:51:10.759Z,0.70
2017-12-09T04:53:39.077Z,0.80
2017-12-09T04:56:06.509Z,0.80
2017-12-09T04:58:33.943Z,0.80
2017-12-09T05:01:02.151Z,0.80
2017-12-09T05:03:29.587Z,0.80
2017-12-09T05:05:57.792Z,0.90
2017-12-09T05:08:25.222Z,0.90
2017-12-09T05:10:52.663Z,0.90
2017-12-09T05:13:20.856Z,0.90
2017-12-09T05:15:48.355Z,0.90
2017-12-09T05:18:15.792Z,0.90
2017-12-09T05:20:43.267Z,0.90
2017-12-09T05:23:10.694Z,0.90
2017-12-09T05:25:38.127Z,0.90
2017-12-09T05:28:06.336Z,0.80
2017-12-09T05:30:33.770Z,0.80
2017-12-09T05:33:01.207Z,0.80
2017-12-09T05:35:29.407Z,0.80
2017-12-09T05:37:56.842Z,0.80
2017-12-09T05:40:25.043Z,0.70
2017-12-09T05:42:52.483Z,0.70
2017-12-09T05:45:19.919Z,0.70
2017-12-09T05:47:48.140Z,0.60
2017-12-09T05:50:15.568Z,0.60
2017-12-09T05:52:43.071Z,0.70
2017-12-09T05:55:10.494Z,0.70
2017-12-09T05:57:37.943Z,0.70
2017-12-09T06:00:05.375Z,0.70
2017-12-09T06:02:32.815Z,0.70
2017-12-09T06:05:00.262Z,0.70
2017-12-09T06:07:27.704Z,0.70
2017-12-09T06:09:55.142Z,0.70
2017-12-09T06:12:22.846Z,0.80
2017-12-09T06:14:50.290Z,0.80
2017-12-09T06:17:17.723Z,0.80
2017-12-09T06:19:45.194Z,0.80
2017-12-09T06:22:12.638Z,0.80
2017-12-09T06:24:40.107Z,0.80
2017-12-09T06:27:07.547Z,0.80
2017-12-09T06:29:35.040Z,0.80
2017-12-09T06:32:02.485Z,0.80
2017-12-09T06:34:29.919Z,0.80
2017-12-09T06:36:57.380Z,0.70
2017-12-09T06:39:24.850Z,0.80
2017-12-09T06:41:52.285Z,0.80
2017-12-09T06:44:19.732Z,0.90
2017-12-09T06:46:47.171Z,0.90
2017-12-09T06:49:15.376Z,1.00
2017-12-09T06:51:42.827Z,1.00
2017-12-09T06:54:10.306Z,1.00
2017-12-09T06:56:37.743Z,1.10
2017-12-09T06:59:05.185Z,1.10
2017-12-09T07:01:32.611Z,1.00
2017-12-09T07:04:00.052Z,1.00
2017-12-09T07:06:28.191Z,1.10
2017-12-09T07:08:55.632Z,1.00
2017-12-09T07:11:23.067Z,1.10
2017-12-09T07:13:51.372Z,1.10
2017-12-09T07:16:18.795Z,1.00
2017-12-09T07:18:47.001Z,1.00
2017-12-09T07:21:14.440Z,1.00
2017-12-09T07:23:41.875Z,1.10
2017-12-09T07:26:10.111Z,1.00
2017-12-09T07:28:37.556Z,1.00
2017-12-09T07:31:04.996Z,1.00
2017-12-09T07:33:32.435Z,0.90
2017-12-09T07:35:59.862Z,1.00
2017-12-09T07:38:28.086Z,1.10
2017-12-09T07:40:55.498Z,1.10
2017-12-09T07:43:23.707Z,1.20
2017-12-09T07:45:51.196Z,1.20
2017-12-09T07:48:18.636Z,1.20
2017-12-09T07:50:46.074Z,1.10
2017-12-09T07:53:13.515Z,1.10
2017-12-09T07:55:41.743Z,1.00
2017-12-09T07:58:09.196Z,1.00
2017-12-09T08:00:36.651Z,1.00
2017-12-09T08:03:04.078Z,1.00
2017-12-09T08:05:31.527Z,1.00
2017-12-09T08:07:58.959Z,1.10
2017-12-09T08:10:27.175Z,1.10
2017-12-09T08:12:54.607Z,1.10
2017-12-09T08:15:22.047Z,1.10
2017-12-09T08:17:50.249Z,1.20
2017-12-09T08:20:17.750Z,1.10
2017-12-09T08:22:45.183Z,1.20
2017-12-09T08:25:12.627Z,1.10
2017-12-09T08:27:40.062Z,1.10
2017-12-09T08:30:07.506Z,1.10
2017-12-09T08:32:35.738Z,1.10
2017-12-09T08:35:03.192Z,1.20
2017-12-09T08:37:30.628Z,1.10
2017-12-09T08:39:58.075Z,1.20
2017-12-09T08:42:25.554Z,1.20
2017-12-09T08:44:53.003Z,1.10
2017-12-09T08:47:20.430Z,1.00
2017-12-09T08:49:47.935Z,1.00
2017-12-09T08:52:15.359Z,1.00
2017-12-09T08:54:42.794Z,1.00
2017-12-09T08:57:11.027Z,1.00
2017-12-09T08:59:38.466Z,1.00
2017-12-09T09:02:05.912Z,1.00
2017-12-09T09:04:33.343Z,1.10
2017-12-09T09:07:00.788Z,1.00
2017-12-09T09:09:28.999Z,1.10
2017-12-09T09:11:56.447Z,1.10
2017-12-09T09:14:23.883Z,1.10
2017-12-09T09:16:52.090Z,1.10
2017-12-09T09:19:19.559Z,1.10
2017-12-09T09:21:46.998Z,1.10
2017-12-09T09:24:14.443Z,1.10
2017-12-09T09:26:41.874Z,1.10
2017-12-09T09:29:10.080Z,1.10
2017-12-09T09:31:37.519Z,1.10
2017-12-09T09:34:04.946Z,1.20
2017-12-09T09:36:32.476Z,1.20
2017-12-09T09:38:59.923Z,1.20
2017-12-09T09:41:27.354Z,1.20
2017-12-09T09:43:54.799Z,1.30
2017-12-09T09:46:22.311Z,1.30
2017-12-09T09:48:49.743Z,1.40
2017-12-09T09:51:17.211Z,1.50
2017-12-09T09:53:44.651Z,1.50
2017-12-09T09:56:12.855Z,1.30
2017-12-09T09:58:41.018Z,1.30
2017-12-09T10:01:08.454Z,1.30
2017-12-09T10:03:35.910Z,1.20
2017-12-09T10:06:03.339Z,1.20
2017-12-09T10:08:31.542Z,1.20
2017-12-09T10:10:58.987Z,1.20
2017-12-09T10:13:26.423Z,1.20
2017-12-09T10:15:54.631Z,1.10
2017-12-09T10:18:22.070Z,1.10
2017-12-09T10:20:49.560Z,1.20
2017-12-09T10:23:17.002Z,1.20
2017-12-09T10:25:44.439Z,1.20
2017-12-09T10:28:11.886Z,1.20
2017-12-09T10:30:40.108Z,1.30
2017-12-09T10:33:07.543Z,1.30
2017-12-09T10:35:34.971Z,1.40
2017-12-09T10:38:02.422Z,1.40
2017-12-09T10:40:30.615Z,1.50
2017-12-09T10:42:58.771Z,1.50
2017-12-09T10:45:26.992Z,1.40
2017-12-09T10:47:54.439Z,1.40
2017-12-09T10:50:21.907Z,1.40
2017-12-09T10:52:49.340Z,1.40
2017-12-09T10:55:16.775Z,1.50
2017-12-09T10:57:44.215Z,1.50
2017-12-09T11:00:12.442Z,1.40
2017-12-09T11:02:39.884Z,1.40
2017-12-09T11:05:07.320Z,1.40
2017-12-09T11:07:34.758Z,1.40
2017-12-09T11:10:02.962Z,1.50
2017-12-09T11:12:30.447Z,1.50
2017-12-09T11:14:57.888Z,1.60
2017-12-09T11:17:25.739Z,1.80
2017-12-09T11:19:53.171Z,1.90
2017-12-09T11:22:21.379Z,1.70
2017-12-09T11:24:48.810Z,1.70
2017-12-09T11:27:17.012Z,1.70
2017-12-09T11:29:44.451Z,1.70
2017-12-09T11:32:11.942Z,1.80
2017-12-09T11:34:39.366Z,1.60
2017-12-09T11:37:06.819Z,1.60
2017-12-09T11:39:35.010Z,1.40
2017-12-09T11:42:02.449Z,1.50
2017-12-09T11:44:29.884Z,1.40
2017-12-09T11:46:58.092Z,1.40
2017-12-09T11:49:25.531Z,1.30
2017-12-09T11:51:52.963Z,1.40
2017-12-09T11:54:20.395Z,1.40
2017-12-09T11:56:47.838Z,1.40
2017-12-09T11:59:15.288Z,1.50
2017-12-09T12:01:42.729Z,1.50
2017-12-09T12:04:10.895Z,1.50
2017-12-09T12:06:38.331Z,1.50
2017-12-09T12:09:06.537Z,1.60
2017-12-09T12:11:33.967Z,1.60
2017-12-09T12:14:02.171Z,1.80
2017-12-09T12:16:29.612Z,1.70
2017-12-09T12:18:57.047Z,1.80
2017-12-09T12:21:25.251Z,1.80
2017-12-09T12:23:52.726Z,1.80
2017-12-09T12:26:20.510Z,1.80
2017-12-09T12:28:47.947Z,1.80
2017-12-09T12:31:15.381Z,1.80
2017-12-09T12:33:42.822Z,1.80
2017-12-09T12:36:10.262Z,1.80
2017-12-09T12:38:38.454Z,1.80
2017-12-09T12:41:05.899Z,1.80
2017-12-09T12:43:34.103Z,1.90
2017-12-09T12:46:01.530Z,1.90
2017-12-09T12:48:29.735Z,1.80
2017-12-09T12:50:57.213Z,1.80
2017-12-09T12:53:24.655Z,1.80
2017-12-09T12:55:52.090Z,1.80
2017-12-09T12:58:19.523Z,1.90
2017-12-09T13:00:47.735Z,1.90
2017-12-09T13:03:15.163Z,1.90
2017-12-09T13:05:42.606Z,1.90
2017-12-09T13:08:10.803Z,2.00
2017-12-09T13:10:38.242Z,2.00
2017-12-09T13:13:06.438Z,2.20
2017-12-09T13:15:33.923Z,2.10
2017-12-09T13:18:01.363Z,2.20
2017-12-09T13:20:28.843Z,2.30
2017-12-09T13:22:56.280Z,2.40
2017-12-09T13:25:23.752Z,2.30
2017-12-09T13:27:51.187Z,2.30
2017-12-09T13:30:18.631Z,2.30
2017-12-09T13:32:46.055Z,2.30
2017-12-09T13:35:14.263Z,2.10
2017-12-09T13:37:41.695Z,2.10
2017-12-09T13:40:09.905Z,2.10
2017-12-09T13:42:37.680Z,2.10
2017-12-09T13:45:05.147Z,2.10
2017-12-09T13:47:32.610Z,2.10
2017-12-09T13:50:00.018Z,2.00
2017-12-09T13:52:27.455Z,1.90
2017-12-09T13:54:55.668Z,2.00
2017-12-09T13:57:23.111Z,1.90
2017-12-09T13:59:50.542Z,2.00
2017-12-09T14:02:18.775Z,1.90
2017-12-09T14:04:46.231Z,2.00
2017-12-09T14:07:13.672Z,1.90
2017-12-09T14:09:41.098Z,1.90
2017-12-09T14:12:08.599Z,1.90
2017-12-09T14:14:36.035Z,1.90
2017-12-09T14:17:03.515Z,1.90
2017-12-09T14:19:30.952Z,1.90
2017-12-09T14:21:58.394Z,1.90
2017-12-09T14:24:25.827Z,1.90
2017-12-09T14:26:54.027Z,1.80
2017-12-09T14:29:21.462Z,1.90
2017-12-09T14:31:49.679Z,1.90
2017-12-09T14:34:17.111Z,1.90
2017-12-09T14:36:44.546Z,1.90
2017-12-09T14:39:12.753Z,1.80
2017-12-09T14:41:40.231Z,1.80
2017-12-09T14:44:07.668Z,1.80
2017-12-09T14:46:35.106Z,1.80
2017-12-09T14:49:02.531Z,1.80
2017-12-09T14:51:30.734Z,1.80
2017-12-09T14:53:58.162Z,1.80
2017-12-09T14:56:26.371Z,1.80
2017-12-09T14:58:54.121Z,1.80
2017-12-09T15:01:22.327Z,1.80
2017-12-09T15:03:49.759Z,1.80
2017-12-09T15:06:17.202Z,1.70
2017-12-09T15:08:45.391Z,1.70
2017-12-09T15:11:12.833Z,1.70
2017-12-09T15:13:41.029Z,1.80
2017-12-09T15:16:08.675Z,1.80
2017-12-09T15:18:36.886Z,1.80
2017-12-09T15:21:04.335Z,1.80
2017-12-09T15:23:31.769Z,1.80
2017-12-09T15:25:59.199Z,1.70
2017-12-09T15:28:27.447Z,1.70
2017-12-09T15:30:54.995Z,1.70
2017-12-09T15:33:22.439Z,1.70
2017-12-09T15:35:49.875Z,1.70
2017-12-09T15:38:17.362Z,1.80
2017-12-09T15:40:44.796Z,1.80
2017-12-09T15:43:12.239Z,1.80
2017-12-09T15:45:39.664Z,1.70
2017-12-09T15:48:07.875Z,1.70
2017-12-09T15:50:35.311Z,1.70
2017-12-09T15:53:03.519Z,1.80
2017-12-09T15:55:30.951Z,1.80
2017-12-09T15:57:58.383Z,1.70
2017-12-09T16:00:26.623Z,1.80
2017-12-09T16:02:54.080Z,1.80
2017-12-09T16:05:21.630Z,1.70
2017-12-09T16:07:49.068Z,1.70
2017-12-09T16:10:16.508Z,1.60
2017-12-09T16:12:44.008Z,1.60
2017-12-09T16:15:11.448Z,1.50
2017-12-09T16:17:38.883Z,1.50
2017-12-09T16:20:06.319Z,1.40
2017-12-09T16:22:34.527Z,1.40
2017-12-09T16:25:01.971Z,1.30
2017-12-09T16:27:29.403Z,1.30
2017-12-09T16:29:57.611Z,1.30
2017-12-09T16:32:25.043Z,1.30
2017-12-09T16:34:53.528Z,1.30
2017-12-09T16:37:21.710Z,1.40
2017-12-09T16:39:49.567Z,1.30
2017-12-09T16:42:17.759Z,1.50
2017-12-09T16:44:45.245Z,1.40
2017-12-09T16:47:12.676Z,1.40
2017-12-09T16:49:40.155Z,1.50
2017-12-09T16:52:07.588Z,1.50
2017-12-09T16:54:35.031Z,1.50
2017-12-09T16:57:02.466Z,1.60
2017-12-09T16:59:30.675Z,1.60
2017-12-09T17:01:58.107Z,1.60
2017-12-09T17:04:25.550Z,1.60
2017-12-09T17:06:53.752Z,1.70
2017-12-09T17:09:21.189Z,1.70
2017-12-09T17:11:49.386Z,1.80
2017-12-09T17:14:16.874Z,1.70
2017-12-09T17:16:44.307Z,1.80
2017-12-09T17:19:11.755Z,1.80
2017-12-09T17:21:39.188Z,1.80
2017-12-09T17:24:07.391Z,1.70
2017-12-09T17:26:34.827Z,1.70
2017-12-09T17:29:02.263Z,1.70
2017-12-09T17:31:30.460Z,1.60
2017-12-09T17:33:57.903Z,1.60
2017-12-09T17:36:26.108Z,1.60
2017-12-09T17:38:53.554Z,1.60
2017-12-09T17:41:21.760Z,1.50
2017-12-09T17:43:49.201Z,1.50
2017-12-09T17:46:16.635Z,1.50
2017-12-09T17:48:44.075Z,1.50
2017-12-09T17:51:12.283Z,1.50
2017-12-09T17:53:39.723Z,1.50
2017-12-09T17:56:07.154Z,1.50
2017-12-09T17:58:35.391Z,1.40
2017-12-09T18:01:02.831Z,1.30
2017-12-09T18:03:30.259Z,1.30
2017-12-09T18:05:57.701Z,1.30
2017-12-09T18:08:25.898Z,1.30
2017-12-09T18:10:53.335Z,1.30
2017-12-09T18:13:21.530Z,1.40
2017-12-09T18:15:49.005Z,1.40
2017-12-09T18:18:16.431Z,1.40
2017-12-09T18:20:44.635Z,1.40
2017-12-09T18:23:12.079Z,1.40
2017-12-09T18:25:39.566Z,1.30
2017-12-09T18:28:06.999Z,1.40
2017-12-09T18:30:34.439Z,1.40
2017-12-09T18:35:52.535Z,1.40
2017-12-09T18:38:19.963Z,1.40
2017-12-09T18:40:48.143Z,1.30
2017-12-09T18:43:15.574Z,1.30
2017-12-09T18:45:43.779Z,1.20
2017-12-09T18:48:11.211Z,1.20
2017-12-09T18:50:38.684Z,1.20
2017-12-09T18:53:06.098Z,1.20
2017-12-09T18:55:34.302Z,1.10
2017-12-09T18:58:01.726Z,1.10
2017-12-09T19:00:29.926Z,0.90
2017-12-09T19:02:57.388Z,0.80
2017-12-09T19:05:24.818Z,0.80
2017-12-09T19:07:53.051Z,0.80
2017-12-09T19:10:20.499Z,0.80
2017-12-09T19:12:48.048Z,0.80
2017-12-09T19:15:15.528Z,0.80
2017-12-09T19:17:42.963Z,0.80
2017-12-09T19:20:10.403Z,0.80
2017-12-09T19:22:37.838Z,0.80
2017-12-09T19:25:06.043Z,0.80
2017-12-09T19:27:33.493Z,0.80
2017-12-09T19:30:00.918Z,0.70
2017-12-09T19:32:29.123Z,0.90
2017-12-09T19:34:56.551Z,0.90
2017-12-09T19:37:24.766Z,0.80
2017-12-09T19:39:52.204Z,0.80
2017-12-09T19:42:19.649Z,0.80
2017-12-09T19:44:47.848Z,0.70
2017-12-09T19:47:15.278Z,0.70
2017-12-09T19:49:43.479Z,0.70
2017-12-09T19:52:10.920Z,0.70
2017-12-09T19:54:38.350Z,0.70
2017-12-09T19:57:06.555Z,0.70
2017-12-09T19:59:33.991Z,0.70
2017-12-09T20:02:02.233Z,0.70
2017-12-09T20:04:29.661Z,0.70
2017-12-09T20:06:57.088Z,0.70
2017-12-09T20:09:24.535Z,0.70
2017-12-09T20:11:52.730Z,0.80
2017-12-09T20:14:20.169Z,0.80
2017-12-09T20:16:48.359Z,0.90
2017-12-09T20:19:15.798Z,0.80
2017-12-09T20:21:43.280Z,0.90
2017-12-09T20:24:10.675Z,0.90
2017-12-09T20:26:38.115Z,0.90
2017-12-09T20:29:05.559Z,0.80
2017-12-09T20:31:32.995Z,0.90
2017-12-09T20:34:00.445Z,0.70
2017-12-09T20:36:27.875Z,0.70
2017-12-09T20:38:55.316Z,0.60
2017-12-09T20:41:22.762Z,0.70
2017-12-09T20:43:50.210Z,0.60
2017-12-09T20:46:17.647Z,0.50
2017-12-09T20:48:45.091Z,0.50
2017-12-09T20:51:12.522Z,0.40
2017-12-09T20:53:40.734Z,0.40
2017-12-09T20:56:08.172Z,0.40
2017-12-09T20:58:35.606Z,0.40
2017-12-09T21:01:03.812Z,0.50
2017-12-09T21:03:31.258Z,0.50
2017-12-09T21:05:58.694Z,0.50
2017-12-09T21:08:26.923Z,0.50
2017-12-09T21:10:54.352Z,0.50
2017-12-09T21:13:21.810Z,0.60
2017-12-09T21:15:49.226Z,0.60
2017-12-09T21:18:17.422Z,0.70
2017-12-09T21:20:44.868Z,0.70
2017-12-09T21:23:13.067Z,0.80
2017-12-09T21:25:40.522Z,0.80
2017-12-09T21:28:07.952Z,0.80
2017-12-09T21:30:36.189Z,0.80
2017-12-09T21:33:03.643Z,0.80
2017-12-09T21:35:31.090Z,0.70
2017-12-09T21:37:58.523Z,0.70
2017-12-09T21:40:25.958Z,0.70
2017-12-09T21:42:54.170Z,0.60
2017-12-09T21:45:21.611Z,0.60
2017-12-09T21:47:49.038Z,0.60
2017-12-09T21:50:17.246Z,0.60
2017-12-09T21:52:44.723Z,0.60
2017-12-09T21:55:12.160Z,0.70
2017-12-09T21:57:39.587Z,0.70
2017-12-09T22:00:07.791Z,0.70
2017-12-09T22:02:35.228Z,0.60
2017-12-09T22:05:02.680Z,0.70
2017-12-09T22:07:30.887Z,0.70
2017-12-09T22:09:58.319Z,0.60
2017-12-09T22:12:25.750Z,0.70
2017-12-09T22:14:53.982Z,0.70
2017-12-09T22:17:21.419Z,0.70
2017-12-09T22:19:48.859Z,0.50
2017-12-09T22:22:16.290Z,0.50
2017-12-09T22:24:44.490Z,0.50
2017-12-09T22:27:11.931Z,0.40
2017-12-09T22:29:40.122Z,0.50
2017-12-09T22:32:07.572Z,0.50
2017-12-09T22:34:35.022Z,0.60
2017-12-09T22:37:03.254Z,0.70
2017-12-09T22:39:30.686Z,0.70
2017-12-09T22:41:58.128Z,0.60
2017-12-09T22:44:25.567Z,0.70
2017-12-09T22:46:53.774Z,0.70
2017-12-09T22:49:21.223Z,0.70
2017-12-09T22:51:48.655Z,0.70
2017-12-09T22:54:16.082Z,0.70
2017-12-09T22:56:44.286Z,0.70
2017-12-09T22:59:11.794Z,0.70
2017-12-09T23:01:39.283Z,0.70
2017-12-09T23:04:06.679Z,0.70
2017-12-09T23:06:34.114Z,0.70
2017-12-09T23:09:01.542Z,0.70
2017-12-09T23:11:30.495Z,0.60
2017-12-09T23:19:40.350Z,0.60
2017-12-09T23:22:07.792Z,0.60
2017-12-09T23:24:35.992Z,0.40
2017-12-09T23:27:03.434Z,0.40
2017-12-09T23:29:30.875Z,0.40
2017-12-09T23:31:58.315Z,0.30
2017-12-09T23:34:25.816Z,0.30
2017-12-09T23:36:53.251Z,0.30
2017-12-09T23:39:21.443Z,0.30
2017-12-09T23:41:48.890Z,0.30
2017-12-09T23:44:16.331Z,0.40
2017-12-09T23:46:44.542Z,0.30
2017-12-09T23:49:11.975Z,0.30
2017-12-09T23:51:39.406Z,0.40
2017-12-09T23:54:07.602Z,0.30
2017-12-09T23:56:35.052Z,0.30
2017-12-09T23:59:03.251Z,0.20
